Time;durP1;ratioP1;P1;durP2;ratioP2;P2;SDS_P1;SDS_P2;PMS_P1;PMS_P2;Temp;Humidity;BMP_temperature;BMP_pressure;BME280_temperature;BME280_humidity;BME280_pressure;Samples;Min_cycle;Max_cycle;Signal;HPM_P1;HPM_P2
2022/01/23 00:01:46;;;;;;;12.43;2.43;;;2.10;99.90;;;;;;5095553;28;20235;-85
2022/01/23 00:04:15;;;;;;;3.08;2.30;;;2.10;99.90;;;;;;5095387;28;20204;-85
2022/01/23 00:06:45;;;;;;;3.20;2.42;;;2.10;99.90;;;;;;5095280;28;20213;-85
2022/01/23 00:09:15;;;;;;;3.03;2.53;;;2.10;99.90;;;;;;5094936;28;20212;-85
2022/01/23 00:11:49;;;;;;;4.03;2.10;;;2.10;99.90;;;;;;5095383;28;20211;-85
2022/01/23 00:17:21;;;;;;;3.45;2.80;;;2.20;99.90;;;;;;5095155;28;20255;-85
2022/01/23 00:19:51;;;;;;;2.70;2.47;;;2.10;99.90;;;;;;5095048;28;20260;-85
2022/01/23 00:22:22;;;;;;;2.23;2.03;;;2.10;99.90;;;;;;5095406;28;20232;-85
2022/01/23 00:30:29;;;;;;;2.63;2.33;;;2.10;99.90;;;;;;5094768;28;20287;-85
2022/01/23 00:33:01;;;;;;;5.83;2.80;;;2.10;99.90;;;;;;5095033;28;20208;-85
2022/01/23 00:35:31;;;;;;;2.53;2.33;;;2.10;99.90;;;;;;5095274;28;20230;-85
2022/01/23 00:38:00;;;;;;;2.47;2.20;;;2.10;99.90;;;;;;5095056;28;20209;-85
2022/01/23 00:40:30;;;;;;;2.83;2.53;;;2.10;99.90;;;;;;5094640;28;20205;-85
2022/01/23 00:43:00;;;;;;;3.40;2.20;;;2.10;99.90;;;;;;5095279;28;20292;-86
2022/01/23 00:45:33;;;;;;;2.40;2.20;;;2.20;99.90;;;;;;5094887;28;20326;-85
2022/01/23 00:48:07;;;;;;;2.47;2.27;;;2.20;99.90;;;;;;5094746;28;20239;-85
2022/01/23 00:50:37;;;;;;;2.50;2.30;;;2.20;99.90;;;;;;5094488;28;20247;-85
2022/01/23 00:53:10;;;;;;;2.17;1.97;;;2.20;99.90;;;;;;5094860;28;20280;-85
2022/01/23 00:55:40;;;;;;;5.65;2.55;;;2.20;99.90;;;;;;5094783;28;20225;-85
2022/01/23 00:58:09;;;;;;;4.60;2.53;;;2.20;99.90;;;;;;5094539;28;20283;-85
2022/01/23 01:00:38;;;;;;;2.53;2.17;;;2.30;99.90;;;;;;5094314;28;20208;-85
2022/01/23 01:03:08;;;;;;;1.85;1.75;;;2.30;99.90;;;;;;5094561;28;20200;-85
2022/01/23 01:05:36;;;;;;;2.20;2.10;;;2.30;99.90;;;;;;5094145;28;20235;-85
2022/01/23 01:08:06;;;;;;;2.57;2.33;;;2.30;99.90;;;;;;5095068;28;20204;-85
2022/01/23 01:10:41;;;;;;;4.43;2.70;;;2.30;99.90;;;;;;5093668;28;20299;-85
2022/01/23 01:13:12;;;;;;;2.93;2.73;;;2.30;99.90;;;;;;5094724;28;20208;-85
2022/01/23 01:32:25;;;;;;;3.43;3.07;;;2.30;99.90;;;;;;5094045;28;20294;-85
2022/01/23 01:35:05;;;;;;;3.33;3.03;;;2.30;99.90;;;;;;5093894;28;20232;-85
2022/01/23 01:37:33;;;;;;;2.90;2.60;;;2.30;99.90;;;;;;5094193;28;20287;-86
2022/01/23 01:40:01;;;;;;;4.05;3.40;;;2.30;99.90;;;;;;5093196;28;20247;-85
2022/01/23 01:42:30;;;;;;;4.70;3.33;;;2.30;99.90;;;;;;5093979;28;20295;-85
2022/01/23 01:44:59;;;;;;;5.47;3.90;;;2.30;99.90;;;;;;5093972;28;20303;-85
2022/01/23 01:47:27;;;;;;;2.80;2.60;;;2.30;99.90;;;;;;5093858;28;20214;-85
2022/01/23 01:49:57;;;;;;;3.77;3.37;;;2.30;99.90;;;;;;5093024;28;20216;-85
2022/01/23 01:52:25;;;;;;;5.05;4.05;;;2.20;99.90;;;;;;5093785;28;20212;-85
2022/01/23 01:55:00;;;;;;;3.53;3.23;;;2.30;99.90;;;;;;5093374;28;20228;-85
2022/01/23 01:57:36;;;;;;;3.87;3.57;;;2.30;99.90;;;;;;5093496;28;20294;-85
2022/01/23 02:00:35;;;;;;;4.67;3.70;;;2.40;99.90;;;;;;5093091;28;20290;-85
2022/01/23 02:03:25;;;;;;;4.63;4.17;;;2.40;99.90;;;;;;5093578;28;20201;-85
2022/01/23 02:08:40;;;;;;;4.40;4.00;;;2.40;99.90;;;;;;5093076;28;20262;-85
2022/01/23 02:11:13;;;;;;;5.47;4.15;;;2.40;99.90;;;;;;5093331;28;20208;-85
2022/01/23 02:13:46;;;;;;;3.97;3.58;;;2.40;99.90;;;;;;5093227;28;20303;-85
2022/01/23 02:25:03;;;;;;;5.30;4.67;;;2.50;99.90;;;;;;5079290;28;20255;-85
2022/01/23 02:52:48;;;;;;;5.57;5.07;;;2.50;99.90;;;;;;5093176;28;20295;-84
2022/01/23 02:55:24;;;;;;;5.67;5.17;;;2.50;99.90;;;;;;5092404;28;20224;-85
2022/01/23 02:57:55;;;;;;;5.43;4.93;;;2.50;99.90;;;;;;5092573;28;20290;-85
2022/01/23 03:00:31;;;;;;;6.03;5.53;;;2.50;99.90;;;;;;5092275;28;20199;-84
2022/01/23 03:03:05;;;;;;;7.60;5.20;;;2.50;99.90;;;;;;5092761;28;20275;-84
2022/01/23 03:05:38;;;;;;;4.43;4.07;;;2.50;99.90;;;;;;5092784;28;20272;-85
2022/01/23 03:08:20;;;;;;;4.93;4.43;;;2.50;99.90;;;;;;5092665;28;20196;-85
2022/01/23 03:11:00;;;;;;;5.70;5.20;;;2.50;99.90;;;;;;5092331;28;20263;-84
2022/01/23 03:13:47;;;;;;;5.43;4.93;;;2.60;99.90;;;;;;5092355;28;20211;-84
2022/01/23 03:24:44;;;;;;;5.30;4.80;;;2.50;99.90;;;;;;5092343;28;20224;-85
2022/01/23 03:27:51;;;;;;;9.77;5.10;;;2.50;99.90;;;;;;5092146;28;20291;-84
2022/01/23 03:30:21;;;;;;;5.77;5.27;;;2.50;99.90;;;;;;5095728;28;20231;-84
2022/01/23 03:32:51;;;;;;;6.90;6.20;;;2.50;99.90;;;;;;5096626;28;20276;-85
2022/01/23 03:35:21;;;;;;;5.93;5.33;;;2.50;99.90;;;;;;5095808;28;20217;-85
2022/01/23 03:37:50;;;;;;;9.43;5.50;;;2.50;99.90;;;;;;5096493;28;20260;-84
2022/01/23 03:40:20;;;;;;;4.93;4.53;;;2.50;99.90;;;;;;5095664;28;20287;-85
2022/01/23 03:42:56;;;;;;;4.77;4.40;;;2.50;99.90;;;;;;5096218;28;20295;-85
2022/01/23 03:45:50;;;;;;;4.70;4.22;;;2.50;99.90;;;;;;5096324;28;20295;-84
2022/01/23 03:51:04;;;;;;;4.80;4.40;;;2.60;99.90;;;;;;5095441;28;20288;-85
2022/01/23 03:53:33;;;;;;;4.95;4.45;;;2.50;99.90;;;;;;5096089;28;20212;-85
2022/01/23 03:56:01;;;;;;;4.47;4.07;;;2.60;99.90;;;;;;5095353;28;20228;-85
2022/01/23 03:58:31;;;;;;;4.75;4.35;;;2.50;99.90;;;;;;5096207;28;20284;-84
2022/01/23 04:01:00;;;;;;;3.92;3.53;;;2.60;99.90;;;;;;5095523;28;20264;-85
2022/01/23 04:03:30;;;;;;;4.47;4.07;;;2.60;99.90;;;;;;5095626;28;20235;-85
2022/01/23 04:05:59;;;;;;;3.70;3.40;;;2.60;99.90;;;;;;5095266;28;20229;-85
2022/01/23 04:08:27;;;;;;;6.07;3.67;;;2.60;99.90;;;;;;5095538;28;20262;-85
2022/01/23 04:10:56;;;;;;;2.87;2.67;;;2.60;99.90;;;;;;5095194;28;20291;-85
2022/01/23 04:13:31;;;;;;;3.05;2.80;;;2.70;99.90;;;;;;5095631;28;20204;-84
2022/01/23 04:16:13;;;;;;;2.90;2.70;;;2.60;99.90;;;;;;5095604;28;20280;-84
2022/01/23 04:32:44;;;;;;;3.47;3.17;;;2.70;99.90;;;;;;5095245;28;20295;-85
2022/01/23 04:35:42;;;;;;;4.82;3.30;;;2.70;99.90;;;;;;5094924;28;20224;-85
2022/01/23 04:46:57;;;;;;;3.25;2.97;;;2.60;99.90;;;;;;5094756;28;20227;-85
2022/01/23 05:00:49;;;;;;;2.70;2.50;;;2.50;99.90;;;;;;5094333;28;20295;-86
2022/01/23 05:06:06;;;;;;;2.27;2.17;;;2.50;99.90;;;;;;5094504;28;20229;-86
2022/01/23 05:08:36;;;;;;;2.33;2.13;;;2.50;99.90;;;;;;5094580;28;20212;-86
2022/01/23 05:11:11;;;;;;;3.03;2.40;;;2.50;99.90;;;;;;5094128;28;20239;-87
2022/01/23 05:13:40;;;;;;;2.13;2.03;;;2.40;99.90;;;;;;5094599;28;20299;-87
2022/01/23 05:16:09;;;;;;;2.70;2.50;;;2.40;99.90;;;;;;5093883;28;20259;-87
2022/01/23 05:18:38;;;;;;;3.03;2.77;;;2.50;99.90;;;;;;5093943;28;20292;-87
2022/01/23 05:21:26;;;;;;;2.38;2.28;;;2.40;99.90;;;;;;5094213;28;20208;-88
2022/01/23 05:23:54;;;;;;;2.43;2.20;;;2.40;99.90;;;;;;5094334;28;20295;-88
2022/01/23 05:26:23;;;;;;;2.30;2.17;;;2.40;99.90;;;;;;5094332;28;20266;-89
2022/01/23 05:28:51;;;;;;;2.13;2.03;;;2.40;99.90;;;;;;5093620;28;20208;-88
2022/01/23 05:31:20;;;;;;;2.50;2.30;;;2.30;99.90;;;;;;5093950;28;20219;-88
2022/01/23 05:33:48;;;;;;;1.90;1.80;;;2.30;99.90;;;;;;5094223;28;20205;-88
2022/01/23 05:36:20;;;;;;;2.30;2.10;;;2.30;99.90;;;;;;5093698;28;20311;-87
2022/01/23 05:38:48;;;;;;;2.27;2.07;;;2.30;99.90;;;;;;5093687;28;20251;-89
2022/01/23 05:41:17;;;;;;;2.13;2.03;;;2.30;99.90;;;;;;5093864;28;20234;-88
2022/01/23 05:43:45;;;;;;;2.17;1.90;;;2.40;99.90;;;;;;5093605;28;20300;-88
2022/01/23 05:46:14;;;;;;;4.07;2.43;;;2.30;99.90;;;;;;5093763;28;20279;-89
2022/01/23 05:48:42;;;;;;;2.63;2.43;;;2.30;99.90;;;;;;5093183;28;20254;-88
2022/01/23 05:51:12;;;;;;;2.97;2.73;;;2.30;99.90;;;;;;5093252;28;20212;-89
2022/01/23 05:53:42;;;;;;;2.73;2.53;;;2.30;99.90;;;;;;5093203;28;20217;-89
2022/01/23 05:56:11;;;;;;;2.50;2.30;;;2.30;99.90;;;;;;5093719;28;20307;-89
2022/01/23 05:58:39;;;;;;;2.53;2.33;;;2.30;99.90;;;;;;5093032;28;20299;-88
2022/01/23 06:01:07;;;;;;;2.53;2.33;;;2.30;99.90;;;;;;5093160;28;20208;-89
2022/01/23 06:03:36;;;;;;;1.95;1.85;;;2.20;99.90;;;;;;5093499;28;20269;-89
2022/01/23 06:06:04;;;;;;;2.28;2.08;;;2.20;99.90;;;;;;5093296;28;20228;-89
2022/01/23 06:08:33;;;;;;;2.38;2.10;;;2.20;99.90;;;;;;5093094;28;20232;-89
2022/01/23 06:11:03;;;;;;;2.58;2.38;;;2.20;99.90;;;;;;5092640;28;20232;-89
2022/01/23 06:13:33;;;;;;;3.00;2.80;;;2.10;99.90;;;;;;5093061;28;20328;-89
2022/01/23 06:16:02;;;;;;;3.07;2.60;;;2.10;99.90;;;;;;5093347;28;20274;-89
2022/01/23 06:18:32;;;;;;;3.30;2.92;;;2.10;99.90;;;;;;5093156;28;20268;-89
2022/01/23 06:21:00;;;;;;;2.87;2.67;;;2.10;99.90;;;;;;5092401;28;20200;-89
2022/01/23 06:23:30;;;;;;;4.78;3.08;;;2.10;99.90;;;;;;5092891;28;20204;-90
2022/01/23 06:25:59;;;;;;;3.43;3.13;;;2.10;99.90;;;;;;5092633;28;20228;-88
2022/01/23 06:28:40;;;;;;;2.55;2.35;;;2.10;99.90;;;;;;5093323;28;20299;-89
2022/01/23 06:31:08;;;;;;;2.58;2.38;;;2.10;99.90;;;;;;5092815;28;20290;-89
2022/01/23 06:33:37;;;;;;;2.87;2.67;;;2.10;99.90;;;;;;5092992;28;20287;-89
2022/01/23 06:36:08;;;;;;;2.53;2.43;;;2.10;99.90;;;;;;5092708;28;20235;-89
2022/01/23 06:38:37;;;;;;;2.43;2.23;;;2.10;99.90;;;;;;5092562;28;20268;-88
2022/01/23 06:41:05;;;;;;;3.13;2.90;;;2.10;99.90;;;;;;5092819;28;20223;-89
2022/01/23 06:43:35;;;;;;;2.40;2.20;;;2.20;99.90;;;;;;5093067;28;20219;-89
2022/01/23 06:46:03;;;;;;;2.70;2.50;;;2.20;99.90;;;;;;5092493;28;20234;-89
2022/01/23 06:48:32;;;;;;;3.00;2.80;;;2.20;99.90;;;;;;5092506;28;20257;-89
2022/01/23 06:51:00;;;;;;;3.00;2.70;;;2.20;99.90;;;;;;5092065;28;20255;-88
2022/01/23 06:53:28;;;;;;;2.77;2.57;;;2.20;99.90;;;;;;5092801;28;20267;-88
2022/01/23 06:55:57;;;;;;;2.85;2.65;;;2.20;99.90;;;;;;5092849;28;20256;-89
2022/01/23 06:58:25;;;;;;;4.40;3.75;;;2.20;99.90;;;;;;5092697;28;20281;-89
2022/01/23 07:00:55;;;;;;;4.57;4.18;;;2.20;99.90;;;;;;5091554;28;20196;-89
2022/01/23 07:03:24;;;;;;;4.38;3.92;;;2.20;99.90;;;;;;5092193;28;20224;-89
2022/01/23 07:05:52;;;;;;;3.50;3.20;;;2.20;99.90;;;;;;5092443;28;20347;-89
2022/01/23 07:08:20;;;;;;;3.55;3.28;;;2.20;99.90;;;;;;5092793;28;20208;-89
2022/01/23 07:10:49;;;;;;;4.73;4.07;;;2.20;99.90;;;;;;5092236;28;20273;-88
2022/01/23 07:13:17;;;;;;;3.10;2.90;;;2.20;99.90;;;;;;5092342;28;20295;-89
2022/01/23 07:15:45;;;;;;;3.88;3.58;;;2.20;99.90;;;;;;5092194;28;20287;-89
2022/01/23 07:18:16;;;;;;;4.30;3.97;;;2.30;99.90;;;;;;5091975;28;20224;-89
2022/01/23 07:20:45;;;;;;;4.55;4.05;;;2.30;99.90;;;;;;5091807;28;20197;-89
2022/01/23 07:23:14;;;;;;;10.20;4.20;;;2.30;99.90;;;;;;5092311;28;20299;-88
2022/01/23 07:25:42;;;;;;;4.45;4.10;;;2.30;99.90;;;;;;5092223;28;20320;-89
2022/01/23 07:28:16;;;;;;;4.10;3.80;;;2.20;99.90;;;;;;5092481;28;20291;-89
2022/01/23 07:30:50;;;;;;;4.38;3.95;;;2.20;99.90;;;;;;5092264;28;20235;-89
2022/01/23 07:33:20;;;;;;;4.05;3.75;;;2.20;99.90;;;;;;5092623;28;20205;-89
2022/01/23 07:35:49;;;;;;;3.08;2.88;;;2.20;99.90;;;;;;5092095;28;20244;-89
2022/01/23 07:38:18;;;;;;;3.80;3.40;;;2.20;99.90;;;;;;5092105;28;20257;-89
2022/01/23 07:40:48;;;;;;;3.40;3.10;;;2.30;99.90;;;;;;5091616;28;20212;-89
2022/01/23 07:43:16;;;;;;;3.57;3.27;;;2.30;99.90;;;;;;5091998;28;20235;-89
2022/01/23 07:45:45;;;;;;;3.95;3.65;;;2.30;99.90;;;;;;5092157;28;20220;-89
2022/01/23 07:48:13;;;;;;;3.33;3.03;;;2.30;99.90;;;;;;5092456;28;20299;-88
2022/01/23 07:50:43;;;;;;;2.80;2.60;;;2.30;99.90;;;;;;5091602;28;20299;-89
2022/01/23 07:53:11;;;;;;;3.50;3.20;;;2.30;99.90;;;;;;5092177;28;20296;-89
2022/01/23 07:55:39;;;;;;;5.05;4.35;;;2.30;99.90;;;;;;5091945;28;20247;-89
2022/01/23 07:58:12;;;;;;;3.73;3.43;;;2.40;99.90;;;;;;5092134;28;20225;-90
2022/01/23 08:00:42;;;;;;;5.85;5.28;;;2.30;99.90;;;;;;5091541;28;20201;-90
2022/01/23 08:03:10;;;;;;;4.53;4.13;;;2.40;99.90;;;;;;5091971;28;20212;-89
2022/01/23 08:05:39;;;;;;;3.83;3.47;;;2.30;99.90;;;;;;5092206;28;20221;-89
2022/01/23 08:08:09;;;;;;;3.20;2.92;;;2.30;99.90;;;;;;5092536;28;20201;-90
2022/01/23 08:10:38;;;;;;;3.90;3.60;;;2.30;99.90;;;;;;5091591;28;20212;-89
2022/01/23 08:13:06;;;;;;;3.70;3.40;;;2.30;99.90;;;;;;5092199;28;20247;-90
2022/01/23 08:15:35;;;;;;;2.95;2.75;;;2.30;99.90;;;;;;5093384;28;20315;-90
2022/01/23 08:18:06;;;;;;;4.20;3.80;;;2.30;99.90;;;;;;5095274;28;20225;-90
2022/01/23 08:20:35;;;;;;;3.17;2.97;;;2.20;99.90;;;;;;5094695;28;20291;-89
2022/01/23 08:23:05;;;;;;;3.47;2.97;;;2.20;99.90;;;;;;5094863;28;20272;-89
2022/01/23 08:25:35;;;;;;;3.00;2.73;;;2.20;99.90;;;;;;5095579;28;20322;-89
2022/01/23 08:28:03;;;;;;;2.97;2.78;;;2.20;99.90;;;;;;5095061;28;20261;-89
2022/01/23 08:30:32;;;;;;;3.00;2.80;;;2.20;99.90;;;;;;5094793;28;20231;-89
2022/01/23 08:33:00;;;;;;;3.78;3.47;;;2.20;99.90;;;;;;5095106;28;20291;-90
2022/01/23 08:35:29;;;;;;;3.35;3.05;;;2.30;99.90;;;;;;5095076;28;20244;-89
2022/01/23 08:37:59;;;;;;;2.90;2.70;;;2.30;99.90;;;;;;5095130;28;20296;-89
2022/01/23 08:40:47;;;;;;;3.40;3.10;;;2.30;99.90;;;;;;5094584;28;20213;-90
2022/01/23 08:43:18;;;;;;;3.37;3.07;;;2.30;99.90;;;;;;5094945;28;20209;-89
2022/01/23 08:45:46;;;;;;;3.43;3.13;;;2.40;99.90;;;;;;5094598;28;20291;-89
2022/01/23 08:48:15;;;;;;;4.97;3.45;;;2.30;99.90;;;;;;5094929;28;20215;-89
2022/01/23 08:50:43;;;;;;;5.57;3.92;;;2.40;99.90;;;;;;5094099;28;20224;-89
2022/01/23 08:53:12;;;;;;;3.20;3.00;;;2.40;99.90;;;;;;5094773;28;20273;-90
2022/01/23 08:55:40;;;;;;;3.70;3.38;;;2.40;99.90;;;;;;5094823;28;20220;-89
2022/01/23 08:58:08;;;;;;;2.67;2.47;;;2.40;99.90;;;;;;5094508;28;20254;-89
2022/01/23 09:00:38;;;;;;;3.65;3.35;;;2.40;99.90;;;;;;5094481;28;20208;-89
2022/01/23 09:03:07;;;;;;;2.80;2.60;;;2.40;99.90;;;;;;5094716;28;20305;-89
2022/01/23 09:05:36;;;;;;;3.00;2.80;;;2.40;99.90;;;;;;5094658;28;20303;-89
2022/01/23 09:08:05;;;;;;;4.40;4.00;;;2.40;99.90;;;;;;5094225;28;20204;-89
2022/01/23 09:10:40;;;;;;;3.60;3.30;;;2.40;99.90;;;;;;5093968;28;20219;-88
2022/01/23 09:13:26;;;;;;;4.22;3.92;;;2.40;99.90;;;;;;5094738;28;20227;-89
2022/01/23 09:15:56;;;;;;;5.05;4.55;;;2.50;99.90;;;;;;5094093;28;20256;-89
2022/01/23 09:18:24;;;;;;;4.57;4.18;;;2.50;99.90;;;;;;5094331;28;20288;-89
2022/01/23 09:20:53;;;;;;;4.13;3.80;;;2.50;99.90;;;;;;5093938;28;20295;-89
2022/01/23 09:23:21;;;;;;;4.85;4.35;;;2.60;99.90;;;;;;5094121;28;20204;-88
2022/01/23 09:25:50;;;;;;;4.17;3.87;;;2.60;99.90;;;;;;5093952;28;20319;-89
2022/01/23 09:28:20;;;;;;;4.63;4.20;;;2.60;99.90;;;;;;5093829;28;20292;-89
2022/01/23 09:30:51;;;;;;;4.75;4.35;;;2.70;99.90;;;;;;5093670;28;20274;-89
2022/01/23 09:33:21;;;;;;;8.63;5.43;;;2.70;99.90;;;;;;5094525;28;20197;-89
2022/01/23 09:35:50;;;;;;;4.33;4.03;;;2.70;99.90;;;;;;5093823;28;20311;-88
2022/01/23 09:38:18;;;;;;;5.83;5.20;;;2.80;99.90;;;;;;5094104;28;20316;-89
2022/01/23 09:40:50;;;;;;;5.47;5.05;;;2.80;99.90;;;;;;5093286;28;20288;-89
2022/01/23 09:43:20;;;;;;;6.00;5.45;;;2.90;99.90;;;;;;5094039;28;20204;-88
2022/01/23 09:45:51;;;;;;;5.63;5.13;;;2.90;99.90;;;;;;5094198;28;20224;-89
2022/01/23 09:48:22;;;;;;;5.78;5.28;;;2.90;99.90;;;;;;5093421;28;20197;-89
2022/01/23 09:50:53;;;;;;;8.32;6.75;;;3.00;99.90;;;;;;5093398;28;20295;-89
2022/01/23 09:53:23;;;;;;;5.85;5.35;;;3.00;99.90;;;;;;5093820;28;20213;-88
2022/01/23 09:55:54;;;;;;;7.63;6.82;;;3.10;99.90;;;;;;5093671;28;20221;-89
2022/01/23 09:58:26;;;;;;;7.05;6.35;;;3.10;99.90;;;;;;5093487;28;20323;-89
2022/01/23 10:00:54;;;;;;;6.03;5.55;;;3.20;99.90;;;;;;5093000;28;20200;-88
2022/01/23 10:03:24;;;;;;;6.68;5.95;;;3.20;99.90;;;;;;5093594;28;20218;-89
2022/01/23 10:05:55;;;;;;;8.45;7.65;;;3.20;99.90;;;;;;5093225;28;20228;-89
2022/01/23 10:08:24;;;;;;;10.52;7.75;;;3.30;99.90;;;;;;5093473;28;20259;-89
2022/01/23 10:10:53;;;;;;;9.95;8.25;;;3.20;99.90;;;;;;5092849;28;20292;-88
2022/01/23 10:13:22;;;;;;;12.52;9.40;;;3.30;99.90;;;;;;5093316;28;20299;-89
2022/01/23 10:15:52;;;;;;;12.13;8.85;;;3.30;99.90;;;;;;5093069;28;20247;-89
2022/01/23 10:18:20;;;;;;;10.25;9.00;;;3.30;99.90;;;;;;5093069;28;20216;-89
2022/01/23 10:20:50;;;;;;;8.57;7.68;;;3.30;99.90;;;;;;5092608;28;20208;-89
2022/01/23 10:23:19;;;;;;;12.23;9.18;;;3.40;99.90;;;;;;5093162;28;20204;-89
2022/01/23 10:25:49;;;;;;;7.63;6.93;;;3.40;99.90;;;;;;5093100;28;20243;-88
2022/01/23 10:28:20;;;;;;;7.80;7.00;;;3.40;99.90;;;;;;5093180;28;20208;-89
2022/01/23 10:30:51;;;;;;;7.32;6.63;;;3.40;99.90;;;;;;5092470;28;20256;-88
2022/01/23 10:33:21;;;;;;;7.45;6.70;;;3.40;99.90;;;;;;5092686;28;20283;-88
2022/01/23 10:36:03;;;;;;;7.32;6.68;;;3.40;99.90;;;;;;5092966;28;20311;-89
2022/01/23 10:38:34;;;;;;;8.18;7.38;;;3.40;99.90;;;;;;5092362;28;20310;-89
2022/01/23 10:41:28;;;;;;;8.77;7.90;;;3.40;99.90;;;;;;5092362;28;20249;-88
2022/01/23 10:47:32;;;;;;;8.63;7.65;;;3.40;99.90;;;;;;5092756;28;20231;-89
2022/01/23 10:50:02;;;;;;;12.07;9.25;;;3.40;99.90;;;;;;5092406;28;20287;-88
2022/01/23 10:52:34;;;;;;;11.50;8.75;;;3.50;99.90;;;;;;5093083;28;20231;-89
2022/01/23 10:55:04;;;;;;;9.43;8.25;;;3.50;99.90;;;;;;5092544;28;20232;-89
2022/01/23 10:57:37;;;;;;;9.45;8.27;;;3.50;99.90;;;;;;5092885;28;20290;-88
2022/01/23 11:00:08;;;;;;;7.57;6.85;;;3.50;99.90;;;;;;5091990;28;20216;-88
2022/01/23 11:02:40;;;;;;;9.23;7.78;;;3.50;99.90;;;;;;5092604;28;20200;-89
2022/01/23 11:05:11;;;;;;;9.52;7.95;;;3.50;99.90;;;;;;5092666;28;20243;-89
2022/01/23 11:07:44;;;;;;;9.40;8.25;;;3.50;99.90;;;;;;5092807;28;20224;-89
2022/01/23 11:10:15;;;;;;;8.93;8.07;;;3.50;99.90;;;;;;5092313;28;20200;-89
2022/01/23 11:17:21;;;;;;;10.00;9.10;;;3.50;99.90;;;;;;5092659;28;20216;-88
2022/01/23 11:18:40;;;;;;;9.38;8.45;;;3.60;99.90;;;;;;5092362;28;20207;-88
2022/01/23 11:21:17;;;;;;;9.30;8.27;;;3.60;99.90;;;;;;5092364;28;20232;-88
2022/01/23 11:24:07;;;;;;;10.65;9.50;;;3.60;99.90;;;;;;5092038;28;20204;-88
2022/01/23 11:26:35;;;;;;;11.23;10.02;;;3.60;99.90;;;;;;5092480;28;20300;-88
2022/01/23 11:29:10;;;;;;;11.18;9.98;;;3.50;99.90;;;;;;5091686;28;20228;-88
2022/01/23 11:31:39;;;;;;;10.32;9.30;;;3.60;99.90;;;;;;5092743;28;20285;-89
2022/01/23 11:34:08;;;;;;;11.07;9.30;;;3.50;99.90;;;;;;5092293;28;20211;-88
2022/01/23 11:36:37;;;;;;;11.15;9.80;;;3.60;99.90;;;;;;5092155;28;20288;-88
2022/01/23 11:39:12;;;;;;;10.45;8.80;;;3.50;99.90;;;;;;5091716;28;20313;-88
2022/01/23 11:50:51;;;;;;;9.73;8.75;;;3.50;99.90;;;;;;5092456;28;20291;-88
2022/01/23 11:53:52;;;;;;;9.90;8.90;;;3.60;99.90;;;;;;5095613;28;20235;-88
2022/01/23 11:56:44;;;;;;;11.20;9.07;;;3.60;99.90;;;;;;5096101;28;20234;-88
2022/01/23 11:59:32;;;;;;;9.82;8.90;;;3.60;99.90;;;;;;5095307;28;20311;-88
2022/01/23 12:02:37;;;;;;;13.23;11.05;;;3.60;99.90;;;;;;5095934;28;20235;-88
2022/01/23 12:05:30;;;;;;;16.13;10.73;;;3.60;99.90;;;;;;5095658;28;20228;-88
2022/01/23 12:08:35;;;;;;;10.80;9.65;;;3.60;99.90;;;;;;5095946;28;20268;-87
2022/01/23 12:17:43;;;;;;;20.80;12.65;;;3.70;99.90;;;;;;5095403;28;20272;-88
2022/01/23 12:20:12;;;;;;;18.70;12.35;;;3.70;99.90;;;;;;5095241;28;20220;-88
2022/01/23 12:22:45;;;;;;;15.50;12.90;;;3.70;99.90;;;;;;5095587;28;20235;-88
2022/01/23 12:25:23;;;;;;;13.15;11.50;;;3.70;99.90;;;;;;5095692;28;20316;-88
2022/01/23 12:28:28;;;;;;;11.57;10.40;;;3.70;99.90;;;;;;5095400;28;20253;-88
2022/01/23 12:30:59;;;;;;;12.48;11.27;;;3.70;99.90;;;;;;5032512;28;20296;-88
2022/01/23 12:33:45;;;;;;;16.92;14.07;;;3.70;99.90;;;;;;5032881;28;20206;-88
2022/01/23 12:36:31;;;;;;;11.68;10.00;;;3.80;99.90;;;;;;5071727;28;20228;-88
2022/01/23 12:39:18;;;;;;;11.10;9.60;;;3.80;99.90;;;;;;5094250;28;20227;-88
2022/01/23 12:41:59;;;;;;;11.27;9.68;;;3.80;99.90;;;;;;5095143;28;20204;-88
2022/01/23 12:44:36;;;;;;;11.93;10.63;;;3.80;99.90;;;;;;5094599;28;20232;-88
2022/01/23 12:47:08;;;;;;;10.35;9.35;;;3.90;99.90;;;;;;5095198;28;20295;-88
2022/01/23 12:49:38;;;;;;;9.32;8.20;;;3.90;99.90;;;;;;5094459;28;20303;-88
2022/01/23 12:52:18;;;;;;;12.70;10.77;;;4.00;99.90;;;;;;5094972;28;20375;-88
2022/01/23 12:54:53;;;;;;;9.82;8.63;;;4.00;99.90;;;;;;5094890;28;20311;-89
2022/01/23 12:57:30;;;;;;;10.35;9.23;;;3.90;99.90;;;;;;5095086;28;20230;-88
2022/01/23 13:00:01;;;;;;;10.65;9.55;;;3.90;99.90;;;;;;5093799;28;20224;-88
2022/01/23 13:02:39;;;;;;;8.90;8.02;;;3.90;99.90;;;;;;5094501;28;20311;-88
2022/01/23 13:05:10;;;;;;;23.75;9.18;;;3.90;99.90;;;;;;5094916;28;20221;-88
2022/01/23 13:07:43;;;;;;;10.68;8.70;;;3.90;99.90;;;;;;5094770;28;20359;-87
2022/01/23 13:10:28;;;;;;;9.65;8.77;;;3.90;99.90;;;;;;5094009;28;20279;-88
2022/01/23 13:13:10;;;;;;;10.52;9.40;;;3.90;99.90;;;;;;5094564;28;20295;-88
2022/01/23 13:16:00;;;;;;;11.82;10.57;;;3.90;99.90;;;;;;5094494;28;20243;-88
2022/01/23 13:18:48;;;;;;;10.20;9.15;;;3.90;99.90;;;;;;5094417;28;20200;-89
2022/01/23 13:32:39;;;;;;;11.10;9.65;;;3.80;99.90;;;;;;5094256;28;20267;-88
2022/01/23 13:35:13;;;;;;;11.75;8.95;;;3.80;99.90;;;;;;5094021;28;20244;-87
2022/01/23 13:37:44;;;;;;;8.63;7.90;;;3.80;99.90;;;;;;5093809;28;20299;-87
2022/01/23 13:40:15;;;;;;;9.40;8.50;;;3.80;99.90;;;;;;5093028;28;20228;-88
2022/01/23 13:42:53;;;;;;;12.50;9.05;;;3.80;99.90;;;;;;5093902;28;20265;-87
2022/01/23 13:51:24;;;;;;;8.60;7.80;;;3.80;99.90;;;;;;5083961;28;20228;-88
2022/01/23 13:59:33;;;;;;;8.60;7.70;;;3.80;99.90;;;;;;5093236;28;20204;-88
2022/01/23 14:02:14;;;;;;;7.43;6.82;;;3.90;99.90;;;;;;5093791;28;20227;-88
2022/01/23 14:04:47;;;;;;;8.43;7.63;;;3.80;99.90;;;;;;5093045;28;20248;-88
2022/01/23 14:07:22;;;;;;;8.50;7.70;;;3.90;99.90;;;;;;5093738;28;20292;-88
2022/01/23 14:09:56;;;;;;;11.10;9.75;;;3.90;99.90;;;;;;5093666;28;20290;-88
2022/01/23 14:12:25;;;;;;;8.45;7.63;;;3.90;99.90;;;;;;5093051;28;20208;-88
2022/01/23 14:15:16;;;;;;;7.57;6.88;;;3.90;99.90;;;;;;5093127;28;20230;-88
2022/01/23 14:17:57;;;;;;;9.02;7.32;;;3.90;99.90;;;;;;5093072;28;20239;-88
2022/01/23 14:20:25;;;;;;;8.43;7.72;;;3.90;99.90;;;;;;5092624;28;20212;-88
2022/01/23 14:22:56;;;;;;;8.15;7.10;;;3.90;99.90;;;;;;5093363;28;20228;-88
2022/01/23 14:25:27;;;;;;;10.30;7.75;;;4.00;99.90;;;;;;5092918;28;20228;-88
2022/01/23 14:28:05;;;;;;;7.55;6.85;;;4.00;99.90;;;;;;5093260;28;20196;-88
2022/01/23 14:30:41;;;;;;;10.70;8.45;;;4.00;99.90;;;;;;5092519;28;20290;-88
2022/01/23 14:33:16;;;;;;;10.70;6.38;;;4.00;99.90;;;;;;5092871;28;20292;-88
2022/01/23 14:35:45;;;;;;;6.93;6.20;;;3.90;99.90;;;;;;5093047;28;20306;-87
2022/01/23 14:38:17;;;;;;;10.90;9.80;;;3.90;99.90;;;;;;5092947;28;20235;-88
2022/01/23 14:40:55;;;;;;;9.20;8.30;;;3.90;99.90;;;;;;5092081;28;20283;-88
2022/01/23 14:43:31;;;;;;;10.15;9.02;;;3.90;99.90;;;;;;5092641;28;20295;-88
2022/01/23 14:46:03;;;;;;;10.50;9.40;;;3.90;99.90;;;;;;5092881;28;20273;-88
2022/01/23 14:48:36;;;;;;;10.93;8.57;;;3.90;99.90;;;;;;5093151;28;20205;-88
2022/01/23 14:51:05;;;;;;;10.32;9.10;;;3.90;99.90;;;;;;5092535;28;20238;-88
2022/01/23 14:53:39;;;;;;;11.98;10.43;;;3.90;99.90;;;;;;5092891;28;20220;-87
2022/01/23 14:56:11;;;;;;;7.53;6.82;;;3.90;99.90;;;;;;5092692;28;20251;-88
2022/01/23 14:58:40;;;;;;;10.00;8.48;;;3.90;99.90;;;;;;5092188;28;20208;-88
2022/01/23 15:01:11;;;;;;;9.45;8.57;;;3.80;99.90;;;;;;5092235;28;20311;-88
2022/01/23 15:03:44;;;;;;;7.15;6.50;;;3.80;99.90;;;;;;5092955;28;20203;-87
2022/01/23 15:06:30;;;;;;;9.82;8.23;;;3.80;99.90;;;;;;5092484;28;20228;-88
2022/01/23 15:09:05;;;;;;;11.25;7.50;;;3.80;99.90;;;;;;5092171;28;20212;-88
2022/01/23 15:11:35;;;;;;;7.25;6.57;;;3.70;99.90;;;;;;5092386;28;20223;-87
2022/01/23 15:14:05;;;;;;;8.60;7.32;;;3.70;99.90;;;;;;5092464;28;20292;-87
2022/01/23 15:16:33;;;;;;;7.53;6.82;;;3.70;99.90;;;;;;5092723;28;20289;-88
2022/01/23 15:19:02;;;;;;;7.30;6.57;;;3.70;99.90;;;;;;5091821;28;20196;-88
2022/01/23 15:21:30;;;;;;;7.18;6.53;;;3.70;99.90;;;;;;5092012;28;20307;-88
2022/01/23 15:23:59;;;;;;;7.23;6.53;;;3.70;99.90;;;;;;5093154;28;20279;-88
2022/01/23 15:26:31;;;;;;;6.05;5.55;;;3.70;99.90;;;;;;5096570;28;20250;-87
2022/01/23 15:28:59;;;;;;;9.60;8.45;;;3.70;99.90;;;;;;5096369;28;20204;-87
2022/01/23 15:31:28;;;;;;;7.88;7.18;;;3.70;99.90;;;;;;5096418;28;20283;-88
2022/01/23 15:33:56;;;;;;;12.15;10.57;;;3.60;99.90;;;;;;5096215;28;20208;-88
2022/01/23 15:36:25;;;;;;;8.85;7.88;;;3.60;99.90;;;;;;5096256;28;20311;-87
2022/01/23 15:38:53;;;;;;;9.77;8.80;;;3.60;99.90;;;;;;5095756;28;20204;-88
2022/01/23 15:41:21;;;;;;;8.65;7.82;;;3.60;99.90;;;;;;5096179;28;20251;-88
2022/01/23 15:43:51;;;;;;;10.05;8.95;;;3.60;99.90;;;;;;5096374;28;20292;-88
2022/01/23 15:46:20;;;;;;;10.00;8.75;;;3.60;99.90;;;;;;5096109;28;20307;-88
2022/01/23 15:48:49;;;;;;;10.50;9.30;;;3.60;99.90;;;;;;5095730;28;20206;-88
2022/01/23 15:51:17;;;;;;;9.07;8.15;;;3.60;99.90;;;;;;5096183;28;20296;-88
2022/01/23 15:53:46;;;;;;;10.07;9.10;;;3.60;99.90;;;;;;5096086;28;20237;-88
2022/01/23 15:56:15;;;;;;;11.90;8.93;;;3.60;99.90;;;;;;5096066;28;20252;-88
2022/01/23 15:58:43;;;;;;;8.38;7.68;;;3.50;99.90;;;;;;5095775;28;20295;-88